Nearby METAR Reports

 

KSJC - San Jose, California, USA
Distance from station: NE 14km
Updated: 28/06/2022 07:53
Clear
Clear
 Wind from NNW
Wind: NNW 9 km/h
Temperature: 15°C
Dew Point: 12°C
Humidity: 82%
Barometer: 1017.9 hPa
Clouds: Clear
Visibility: 16 km
2022/06/28 10:53 KSJC 281053Z AUTO 34005KT 10SM CLR 15/12 A3006 RMK AO2 SLP178 T01500122 $
KNUQ - Moffett Nas/Mtn, California, USA
Distance from station: N 14km
Updated: 28/06/2022 08:35

 Wind from calm
Wind: Calm
Temperature: 15°C
Dew Point: 13°C
Humidity: 88%
Barometer: 1017.9 hPa
Visibility: 16 km
2022/06/28 11:35 KNUQ 281135Z AUTO 00000KT 10SM 15/13 A3006 RMK AO2
 
KPAO - Palo Alto, California, USA
Distance from station: NNW 23km
Updated: 28/06/2022 00:47
NOT Current
Clear
Clear
 Wind from NNW
Wind: NNW 15 km/h
Temperature: 17°C
Dew Point: 14°C
Humidity: 83%
Barometer: 1017.6 hPa
Clouds: Clear
Visibility: 16 km
2022/06/28 03:47 KPAO 280347Z 33008KT 10SM SKC 17/14 A3005 RMK LAST
KRHV - San Jose/Reid, California, USA
Distance from station: ENE 19km
Updated: 28/06/2022 01:47
NOT Current
Clear
Clear
 Wind from WNW
Wind: WNW 13 km/h
Temperature: 19°C
Dew Point: 13°C
Humidity: 68%
Barometer: 1017.9 hPa
Clouds: Clear
Visibility: 16 km
2022/06/28 04:47 KRHV 280447Z 30007KT 10SM SKC 19/13 A3006
 
KOAK - Oakland, California, USA
Distance from station: NNW 50km
Updated: 28/06/2022 07:53
Mostly cloudy
Mostly cloudy
 Wind from NW
Wind: NW 6 km/h
Temperature: 13°C
Dew Point: 12°C
Humidity: 94%
Barometer: 1018.3 hPa
Clouds: Mostly cloudy
Visibility: 16 km
Cloud details: Mostly cloudy 244 m
Mostly cloudy 305 m
2022/06/28 10:53 KOAK 281053Z 32003KT 10SM BKN008 BKN010 13/12 A3007 RMK AO2 SLP180 T01330122
KSQL - San Carlos Airpo, California, USA
Distance from station: NW 34km
Updated: 28/06/2022 08:35
Clear
Clear
 Wind from calm
Wind: Calm
Temperature: 13°C
Dew Point: 10°C
Humidity: 82%
Barometer: 1018.3 hPa
Clouds: Clear
Visibility: 16 km
2022/06/28 11:35 KSQL 281135Z AUTO 00000KT 10SM CLR 13/10 A3007 RMK AO2
 
KSFO - San Francisco, California, USA
Distance from station: NW 49km
Updated: 28/06/2022 07:56
Partly cloudy
Partly cloudy
 Wind from NW
Wind: NW 20 km/h
Temperature: 13°C
Dew Point: 11°C
Humidity: 88%
Barometer: 1017.9 hPa
Clouds: Partly cloudy
Visibility: 16 km
Cloud details: Few Clouds 61 m
Partly cloudy 152 m
2022/06/28 10:56 KSFO 281056Z 32011KT 10SM FEW002 SCT005 13/11 A3006 RMK AO2 SLP179 T01280106
KE16 - San Martin, California, USA
Distance from station: ESE 43km
Updated: 28/06/2022 08:35
Clear
Clear
 Wind from NNW
Wind: NNW 9 km/h
Temperature: 15°C
Dew Point: 13°C
Humidity: 88%
Barometer: 1017.9 hPa
Clouds: Clear
Visibility: 16 km
2022/06/28 11:35 KE16 281135Z AUTO 33005KT 10SM CLR 15/13 A3006 RMK AO2 PWINO PNO
 
KWVI - Watsonville, California, USA
Distance from station: SSE 44km
Updated: 28/06/2022 08:33
Fog, Overcast
Fog, Overcast
 Wind from calm
Wind: Calm
Temperature: 10°C
Dew Point: 10°C
Humidity: 100%
Barometer: 1017.6 hPa
Summary: Fog
Clouds: Overcast
Visibility: 0.4 km
Cloud details: Overcast 30 m
2022/06/28 11:33 KWVI 281133Z AUTO 00000KT 1/4SM FG VV001 10/10 A3005 RMK AO2 T01000100 $
KHAF - Half Moon Bay, California, USA
Distance from station: WNW 50km
Updated: 28/06/2022 08:35
Overcast
Overcast
 Wind from NNW
Wind: NNW 15 km/h
Temperature: 12°C
Dew Point: 12°C
Humidity: 100%
Barometer: 1019 hPa
Clouds: Overcast
Visibility: 11 km
Cloud details: Overcast 183 m
2022/06/28 11:35 KHAF 281135Z AUTO 33008KT 7SM OVC006 12/12 A3009 RMK AO2
 
KHWD - Hayward, California, USA
Distance from station: N 44km
Updated: 28/06/2022 07:54
Overcast
Overcast
 Wind from calm
Wind: Calm
Temperature: 13°C
Dew Point: 12°C
Humidity: 94%
Barometer: 1017.9 hPa
Clouds: Overcast
Visibility: 16 km
Cloud details: Overcast 274 m
2022/06/28 10:54 KHWD 281054Z AUTO 00000KT 10SM OVC009 13/12 A3006 RMK AO2 SLP188 T01330117
KLVK - Livermore, California, USA
Distance from station: NNE 51km
Updated: 28/06/2022 07:53
Clear
Clear
 Wind from WNW
Wind: WNW 11 km/h
Temperature: 16°C
Dew Point: 8°C
Humidity: 59%
Barometer: 1016.9 hPa
Clouds: Clear
Visibility: 16 km
2022/06/28 10:53 KLVK 281053Z AUTO 30006KT 10SM CLR 16/08 A3003 RMK AO2 SLP164 T01560083